sensor_id;sensor_type;location;lat;lon;timestamp;pressure;altitude;pressure_sealevel;temperature;humidity
71601;BME280;59446;52.192;4.628;2023-04-01T00:02:00;99078.31;;;17.22;56.71
71601;BME280;59446;52.192;4.628;2023-04-01T00:04:26;99081.78;;;17.22;56.32
71601;BME280;59446;52.192;4.628;2023-04-01T00:06:51;99076.78;;;17.19;56.19
71601;BME280;59446;52.192;4.628;2023-04-01T00:09:17;99087.19;;;17.21;55.92
71601;BME280;59446;52.192;4.628;2023-04-01T00:11:42;99084.69;;;17.19;55.94
71601;BME280;59446;52.192;4.628;2023-04-01T00:14:08;99082.03;;;17.19;56.13
71601;BME280;59446;52.192;4.628;2023-04-01T00:16:33;99093.53;;;17.18;56.44
71601;BME280;59446;52.192;4.628;2023-04-01T00:18:59;99089.94;;;17.19;56.17
71601;BME280;59446;52.192;4.628;2023-04-01T00:21:25;99086.59;;;17.17;56.44
71601;BME280;59446;52.192;4.628;2023-04-01T00:23:51;99092.00;;;17.16;55.89
71601;BME280;59446;52.192;4.628;2023-04-01T00:26:16;99089.38;;;17.16;56.04
71601;BME280;59446;52.192;4.628;2023-04-01T00:28:44;99087.69;;;17.15;56.42
71601;BME280;59446;52.192;4.628;2023-04-01T00:31:10;99099.19;;;17.14;55.95
71601;BME280;59446;52.192;4.628;2023-04-01T00:33:36;99092.25;;;17.13;56.17
71601;BME280;59446;52.192;4.628;2023-04-01T00:36:14;99100.16;;;17.13;56.15
71601;BME280;59446;52.192;4.628;2023-04-01T00:38:40;99104.72;;;17.11;56.17
71601;BME280;59446;52.192;4.628;2023-04-01T00:41:07;99105.66;;;17.10;56.19
71601;BME280;59446;52.192;4.628;2023-04-01T00:43:34;99109.25;;;17.09;56.44
71601;BME280;59446;52.192;4.628;2023-04-01T00:45:59;99115.34;;;17.09;56.10
71601;BME280;59446;52.192;4.628;2023-04-01T00:48:36;99105.81;;;17.08;56.47
71601;BME280;59446;52.192;4.628;2023-04-01T00:51:10;99105.94;;;17.07;56.34
71601;BME280;59446;52.192;4.628;2023-04-01T00:53:41;99114.66;;;17.07;56.49
71601;BME280;59446;52.192;4.628;2023-04-01T00:56:15;99111.31;;;17.05;56.15
71601;BME280;59446;52.192;4.628;2023-04-01T00:58:44;99113.94;;;17.05;56.34
71601;BME280;59446;52.192;4.628;2023-04-01T01:01:11;99117.41;;;17.06;56.57
71601;BME280;59446;52.192;4.628;2023-04-01T01:03:37;99122.09;;;17.02;56.02
71601;BME280;59446;52.192;4.628;2023-04-01T01:12:13;99133.56;;;17.01;56.44
71601;BME280;59446;52.192;4.628;2023-04-01T01:14:49;99126.63;;;17.00;56.25
71601;BME280;59446;52.192;4.628;2023-04-01T01:17:43;99135.34;;;17.01;56.60
71601;BME280;59446;52.192;4.628;2023-04-01T01:28:54;99145.28;;;16.97;56.29
71601;BME280;59446;52.192;4.628;2023-04-01T01:31:29;99146.38;;;16.94;56.36
71601;BME280;59446;52.192;4.628;2023-04-01T01:36:31;99147.22;;;16.95;56.31
71601;BME280;59446;52.192;4.628;2023-04-01T01:39:01;99154.25;;;16.94;56.23
71601;BME280;59446;52.192;4.628;2023-04-01T01:41:29;99154.25;;;16.94;56.37
71601;BME280;59446;52.192;4.628;2023-04-01T01:43:56;99153.44;;;16.94;56.58
71601;BME280;59446;52.192;4.628;2023-04-01T01:46:26;99159.53;;;16.94;55.97
71601;BME280;59446;52.192;4.628;2023-04-01T01:48:53;99166.56;;;16.94;56.21
71601;BME280;59446;52.192;4.628;2023-04-01T01:51:21;99166.69;;;16.92;56.18
71601;BME280;59446;52.192;4.628;2023-04-01T01:53:47;99170.16;;;16.93;56.52
71601;BME280;59446;52.192;4.628;2023-04-01T01:56:13;99171.13;;;16.92;56.30
71601;BME280;59446;52.192;4.628;2023-04-01T01:58:51;99174.72;;;16.91;56.00
71601;BME280;59446;52.192;4.628;2023-04-01T02:01:22;99168.63;;;16.90;56.24
71601;BME280;59446;52.192;4.628;2023-04-01T02:03:50;99170.41;;;16.90;56.24
71601;BME280;59446;52.192;4.628;2023-04-01T02:06:19;99181.78;;;16.90;55.98
71601;BME280;59446;52.192;4.628;2023-04-01T02:09:04;99183.56;;;16.90;55.82
71601;BME280;59446;52.192;4.628;2023-04-01T02:14:23;99192.53;;;16.87;56.06
71601;BME280;59446;52.192;4.628;2023-04-01T02:17:12;99198.63;;;16.88;56.41
71601;BME280;59446;52.192;4.628;2023-04-01T02:19:52;99203.19;;;16.86;55.99
71601;BME280;59446;52.192;4.628;2023-04-01T02:22:22;99194.47;;;16.85;56.45
71601;BME280;59446;52.192;4.628;2023-04-01T02:24:50;99211.06;;;16.86;56.47
71601;BME280;59446;52.192;4.628;2023-04-01T02:27:18;99214.66;;;16.85;55.96
71601;BME280;59446;52.192;4.628;2023-04-01T02:29:44;99219.91;;;16.85;56.21
71601;BME280;59446;52.192;4.628;2023-04-01T02:32:10;99215.63;;;16.84;56.12
71601;BME280;59446;52.192;4.628;2023-04-01T02:34:36;99221.84;;;16.83;56.19
71601;BME280;59446;52.192;4.628;2023-04-01T02:37:02;99228.75;;;16.84;56.06
71601;BME280;59446;52.192;4.628;2023-04-01T02:39:27;99229.59;;;16.84;56.43
71601;BME280;59446;52.192;4.628;2023-04-01T02:41:53;99228.75;;;16.84;56.01
71601;BME280;59446;52.192;4.628;2023-04-01T02:44:18;99233.06;;;16.85;56.32
71601;BME280;59446;52.192;4.628;2023-04-01T02:46:44;99232.34;;;16.83;56.37
71601;BME280;59446;52.192;4.628;2023-04-01T02:49:09;99238.44;;;16.83;56.06
71601;BME280;59446;52.192;4.628;2023-04-01T02:51:35;99245.50;;;16.83;56.04
71601;BME280;59446;52.192;4.628;2023-04-01T02:54:00;99245.50;;;16.83;56.58
71601;BME280;59446;52.192;4.628;2023-04-01T02:56:26;99251.72;;;16.82;56.43
71601;BME280;59446;52.192;4.628;2023-04-01T02:58:53;99253.38;;;16.83;56.18
71601;BME280;59446;52.192;4.628;2023-04-01T03:01:18;99257.81;;;16.82;56.38
71601;BME280;59446;52.192;4.628;2023-04-01T03:03:44;99261.41;;;16.81;56.52
71601;BME280;59446;52.192;4.628;2023-04-01T03:06:11;99271.06;;;16.81;56.28
71601;BME280;59446;52.192;4.628;2023-04-01T03:08:37;99275.50;;;16.80;56.15
71601;BME280;59446;52.192;4.628;2023-04-01T03:11:03;99278.25;;;16.79;56.49
71601;BME280;59446;52.192;4.628;2023-04-01T03:13:28;99274.66;;;16.80;55.98
71601;BME280;59446;52.192;4.628;2023-04-01T03:15:54;99286.97;;;16.79;56.23
71601;BME280;59446;52.192;4.628;2023-04-01T03:18:20;99299.28;;;16.79;56.02
71601;BME280;59446;52.192;4.628;2023-04-01T03:20:45;99298.41;;;16.78;56.21
71601;BME280;59446;52.192;4.628;2023-04-01T03:23:11;99301.16;;;16.77;56.00
71601;BME280;59446;52.192;4.628;2023-04-01T03:25:36;99302.00;;;16.77;56.55
71601;BME280;59446;52.192;4.628;2023-04-01T03:28:02;99308.09;;;16.78;56.35
71601;BME280;59446;52.192;4.628;2023-04-01T03:30:28;99311.69;;;16.77;56.08
71601;BME280;59446;52.192;4.628;2023-04-01T03:32:56;99313.34;;;16.78;55.90
71601;BME280;59446;52.192;4.628;2023-04-01T03:35:22;99317.78;;;16.77;56.34
71601;BME280;59446;52.192;4.628;2023-04-01T03:37:47;99326.63;;;16.76;56.37
71601;BME280;59446;52.192;4.628;2023-04-01T03:40:13;99325.91;;;16.74;56.36
71601;BME280;59446;52.192;4.628;2023-04-01T03:42:38;99338.09;;;16.75;56.32
71601;BME280;59446;52.192;4.628;2023-04-01T03:45:04;99337.25;;;16.75;56.14
71601;BME280;59446;52.192;4.628;2023-04-01T03:47:30;99339.03;;;16.74;56.58
71601;BME280;59446;52.192;4.628;2023-04-01T03:49:55;99354.81;;;16.74;56.08
71601;BME280;59446;52.192;4.628;2023-04-01T03:52:21;99352.06;;;16.76;56.03
71601;BME280;59446;52.192;4.628;2023-04-01T03:54:46;99353.16;;;16.73;56.08
71601;BME280;59446;52.192;4.628;2023-04-01T03:57:12;99363.66;;;16.73;56.34
71601;BME280;59446;52.192;4.628;2023-04-01T03:59:37;99366.28;;;16.73;56.45
71601;BME280;59446;52.192;4.628;2023-04-01T04:02:03;99369.75;;;16.74;56.22
71601;BME280;59446;52.192;4.628;2023-04-01T04:04:28;99369.03;;;16.72;56.17
71601;BME280;59446;52.192;4.628;2023-04-01T04:06:54;99373.34;;;16.73;56.05
71601;BME280;59446;52.192;4.628;2023-04-01T04:09:19;99382.19;;;16.72;56.01
71601;BME280;59446;52.192;4.628;2023-04-01T04:11:45;99388.28;;;16.72;56.10
71601;BME280;59446;52.192;4.628;2023-04-01T04:14:10;99395.31;;;16.72;56.27
71601;BME280;59446;52.192;4.628;2023-04-01T04:16:36;99385.75;;;16.71;56.24
71601;BME280;59446;52.192;4.628;2023-04-01T04:19:02;99396.28;;;16.71;56.08
71601;BME280;59446;52.192;4.628;2023-04-01T04:21:28;99401.53;;;16.71;56.48
71601;BME280;59446;52.192;4.628;2023-04-01T04:23:53;99407.75;;;16.70;56.08
71601;BME280;59446;52.192;4.628;2023-04-01T04:26:19;99413.00;;;16.70;56.42
71601;BME280;59446;52.192;4.628;2023-04-01T04:28:45;99413.00;;;16.70;56.16
71601;BME280;59446;52.192;4.628;2023-04-01T04:31:10;99419.94;;;16.71;56.32
71601;BME280;59446;52.192;4.628;2023-04-01T04:33:36;99417.44;;;16.69;56.17
71601;BME280;59446;52.192;4.628;2023-04-01T04:36:03;99424.47;;;16.69;56.50
71601;BME280;59446;52.192;4.628;2023-04-01T04:38:29;99431.53;;;16.68;55.96
71601;BME280;59446;52.192;4.628;2023-04-01T04:40:55;99430.69;;;16.67;56.04
71601;BME280;59446;52.192;4.628;2023-04-01T04:43:21;99443.81;;;16.67;55.98
71601;BME280;59446;52.192;4.628;2023-04-01T04:45:47;99450.03;;;16.66;56.06
71601;BME280;59446;52.192;4.628;2023-04-01T04:48:14;99448.25;;;16.67;56.21
71601;BME280;59446;52.192;4.628;2023-04-01T04:50:49;99446.56;;;16.66;56.14
71601;BME280;59446;52.192;4.628;2023-04-01T04:53:17;99454.59;;;16.64;56.17
71601;BME280;59446;52.192;4.628;2023-04-01T04:55:47;99463.31;;;16.65;55.78
71601;BME280;59446;52.192;4.628;2023-04-01T04:58:12;99462.47;;;16.64;56.17
71601;BME280;59446;52.192;4.628;2023-04-01T05:00:38;99477.41;;;16.64;56.30
71601;BME280;59446;52.192;4.628;2023-04-01T05:03:03;99468.69;;;16.63;55.99
71601;BME280;59446;52.192;4.628;2023-04-01T05:05:29;99473.09;;;16.63;56.13
71601;BME280;59446;52.192;4.628;2023-04-01T05:07:54;99489.78;;;16.62;56.53
71601;BME280;59446;52.192;4.628;2023-04-01T05:10:20;99486.31;;;16.61;55.89
71601;BME280;59446;52.192;4.628;2023-04-01T05:12:46;99495.03;;;16.62;56.36
71601;BME280;59446;52.192;4.628;2023-04-01T05:15:11;99494.22;;;16.61;56.41
71601;BME280;59446;52.192;4.628;2023-04-01T05:17:37;99491.56;;;16.61;56.20
71601;BME280;59446;52.192;4.628;2023-04-01T05:20:02;99507.34;;;16.61;55.96
71601;BME280;59446;52.192;4.628;2023-04-01T05:22:28;99509.25;;;16.59;56.40
71601;BME280;59446;52.192;4.628;2023-04-01T05:24:53;99511.78;;;16.61;56.07
71601;BME280;59446;52.192;4.628;2023-04-01T05:27:19;99517.03;;;16.61;56.08
71601;BME280;59446;52.192;4.628;2023-04-01T05:29:44;99527.53;;;16.61;56.54
71601;BME280;59446;52.192;4.628;2023-04-01T05:32:10;99525.88;;;16.60;56.18
71601;BME280;59446;52.192;4.628;2023-04-01T05:34:35;99522.50;;;16.58;56.33
71601;BME280;59446;52.192;4.628;2023-04-01T05:37:00;99533.75;;;16.60;56.03
71601;BME280;59446;52.192;4.628;2023-04-01T05:39:26;99534.69;;;16.59;55.95
71601;BME280;59446;52.192;4.628;2023-04-01T05:41:51;99540.78;;;16.59;55.82
71601;BME280;59446;52.192;4.628;2023-04-01T05:44:17;99533.88;;;16.58;56.33
71601;BME280;59446;52.192;4.628;2023-04-01T05:46:42;99540.06;;;16.57;55.97
71601;BME280;59446;52.192;4.628;2023-04-01T05:49:08;99548.78;;;16.58;55.88
71601;BME280;59446;52.192;4.628;2023-04-01T05:51:33;99555.84;;;16.57;56.11
71601;BME280;59446;52.192;4.628;2023-04-01T05:53:58;99556.78;;;16.56;56.33
71601;BME280;59446;52.192;4.628;2023-04-01T05:56:24;99566.34;;;16.57;56.45
71601;BME280;59446;52.192;4.628;2023-04-01T05:58:52;99569.09;;;16.56;55.86
71601;BME280;59446;52.192;4.628;2023-04-01T06:01:18;99571.72;;;16.56;56.06
71601;BME280;59446;52.192;4.628;2023-04-01T06:03:44;99566.47;;;16.56;56.40
71601;BME280;59446;52.192;4.628;2023-04-01T06:06:29;99581.28;;;16.57;56.29
71601;BME280;59446;52.192;4.628;2023-04-01T06:08:58;99583.91;;;16.57;56.36
71601;BME280;59446;52.192;4.628;2023-04-01T06:11:51;99576.09;;;16.55;56.31
71601;BME280;59446;52.192;4.628;2023-04-01T06:20:18;99598.19;;;16.53;56.52
71601;BME280;59446;52.192;4.628;2023-04-01T06:25:28;99605.25;;;16.52;56.07
71601;BME280;59446;52.192;4.628;2023-04-01T06:31:04;99607.88;;;16.52;55.91
71601;BME280;59446;52.192;4.628;2023-04-01T06:33:35;99610.63;;;16.51;56.09
71601;BME280;59446;52.192;4.628;2023-04-01T06:44:24;99632.81;;;16.47;55.78
71601;BME280;59446;52.192;4.628;2023-04-01T06:52:38;99640.69;;;16.47;55.97
71601;BME280;59446;52.192;4.628;2023-04-01T06:55:46;99654.91;;;16.44;55.97
71601;BME280;59446;52.192;4.628;2023-04-01T06:58:27;99647.84;;;16.45;55.91
71601;BME280;59446;52.192;4.628;2023-04-01T07:01:02;99651.22;;;16.47;56.17
71601;BME280;59446;52.192;4.628;2023-04-01T07:03:49;99655.41;;;16.49;56.19
71601;BME280;59446;52.192;4.628;2023-04-01T07:06:35;99664.97;;;16.50;55.82
71601;BME280;59446;52.192;4.628;2023-04-01T07:09:06;99670.22;;;16.50;55.89
71601;BME280;59446;52.192;4.628;2023-04-01T07:11:37;99669.25;;;16.51;56.52
71601;BME280;59446;52.192;4.628;2023-04-01T07:14:24;99674.28;;;16.54;56.53
71601;BME280;59446;52.192;4.628;2023-04-01T07:17:12;99675.06;;;16.56;56.18
71601;BME280;59446;52.192;4.628;2023-04-01T07:20:03;99689.88;;;16.57;55.94
71601;BME280;59446;52.192;4.628;2023-04-01T07:22:43;99694.50;;;16.66;56.40
71601;BME280;59446;52.192;4.628;2023-04-01T07:25:39;99693.53;;;16.67;55.96
71601;BME280;59446;52.192;4.628;2023-04-01T07:28:13;99698.28;;;16.62;56.52
71601;BME280;59446;52.192;4.628;2023-04-01T07:34:01;99711.63;;;16.59;56.68
71601;BME280;59446;52.192;4.628;2023-04-01T07:36:44;99710.56;;;16.62;56.49
71601;BME280;59446;52.192;4.628;2023-04-01T07:39:37;99712.16;;;16.64;56.05
71601;BME280;59446;52.192;4.628;2023-04-01T07:42:24;99710.38;;;16.65;56.22
71601;BME280;59446;52.192;4.628;2023-04-01T07:53:22;99726.34;;;16.49;56.23
71601;BME280;59446;52.192;4.628;2023-04-01T08:07:13;99745.38;;;16.53;56.24
71601;BME280;59446;52.192;4.628;2023-04-01T08:09:48;99747.16;;;16.52;56.18
71601;BME280;59446;52.192;4.628;2023-04-01T08:23:07;99769.56;;;16.45;56.00
71601;BME280;59446;52.192;4.628;2023-04-01T08:25:40;99767.66;;;16.47;56.05
71601;BME280;59446;52.192;4.628;2023-04-01T08:28:15;99774.19;;;16.42;55.75
71601;BME280;59446;52.192;4.628;2023-04-01T08:30:52;99780.19;;;16.44;55.89
71601;BME280;59446;52.192;4.628;2023-04-01T08:33:27;99781.97;;;16.43;56.13
71601;BME280;59446;52.192;4.628;2023-04-01T08:38:28;99794.28;;;16.43;56.17
71601;BME280;59446;52.192;4.628;2023-04-01T08:52:36;99805.84;;;16.40;55.70
71601;BME280;59446;52.192;4.628;2023-04-01T08:55:34;99810.16;;;16.41;55.71
71601;BME280;59446;52.192;4.628;2023-04-01T09:04:04;99817.28;;;16.39;56.09
71601;BME280;59446;52.192;4.628;2023-04-01T09:21:09;99840.00;;;16.40;55.47
71601;BME280;59446;52.192;4.628;2023-04-01T09:26:53;99845.34;;;16.39;55.48
71601;BME280;59446;52.192;4.628;2023-04-01T09:59:40;99876.16;;;16.36;56.07
71601;BME280;59446;52.192;4.628;2023-04-01T10:05:22;99889.41;;;16.35;55.59
71601;BME280;59446;52.192;4.628;2023-04-01T10:16:17;99900.84;;;16.34;56.01
71601;BME280;59446;52.192;4.628;2023-04-01T10:19:15;99899.13;;;16.33;55.82
71601;BME280;59446;52.192;4.628;2023-04-01T10:33:23;99911.38;;;16.34;55.38
71601;BME280;59446;52.192;4.628;2023-04-01T10:36:26;99911.38;;;16.34;55.94
71601;BME280;59446;52.192;4.628;2023-04-01T10:45:51;99922.78;;;16.33;55.44
71601;BME280;59446;52.192;4.628;2023-04-01T11:02:56;99935.91;;;16.33;55.61
71601;BME280;59446;52.192;4.628;2023-04-01T11:25:17;99953.41;;;16.34;55.94
71601;BME280;59446;52.192;4.628;2023-04-01T11:36:37;99962.97;;;16.35;55.50
71601;BME280;59446;52.192;4.628;2023-04-01T11:39:20;99962.97;;;16.35;55.83
71601;BME280;59446;52.192;4.628;2023-04-01T11:47:55;99983.78;;;16.38;55.55
71601;BME280;59446;52.192;4.628;2023-04-01T11:56:15;99982.00;;;16.39;55.48
71601;BME280;59446;52.192;4.628;2023-04-01T11:59:25;99991.88;;;16.35;56.07
71601;BME280;59446;52.192;4.628;2023-04-01T12:10:21;100012.69;;;16.38;55.97
71601;BME280;59446;52.192;4.628;2023-04-01T12:13:04;100006.56;;;16.38;56.03
71601;BME280;59446;52.192;4.628;2023-04-01T12:18:16;100015.19;;;16.40;55.58
71601;BME280;59446;52.192;4.628;2023-04-01T12:32:55;100031.06;;;16.38;56.21
71601;BME280;59446;52.192;4.628;2023-04-01T12:44:33;100043.06;;;16.42;55.64
71601;BME280;59446;52.192;4.628;2023-04-01T12:50:27;100055.66;;;16.37;56.23
71601;BME280;59446;52.192;4.628;2023-04-01T12:56:12;100062.59;;;16.38;56.05
71601;BME280;59446;52.192;4.628;2023-04-01T12:58:58;100053.97;;;16.36;55.87
71601;BME280;59446;52.192;4.628;2023-04-01T13:07:15;100069.53;;;16.39;55.86
71601;BME280;59446;52.192;4.628;2023-04-01T13:10:02;100073.84;;;16.40;56.04
71601;BME280;59446;52.192;4.628;2023-04-01T13:13:00;100076.47;;;16.40;56.29
71601;BME280;59446;52.192;4.628;2023-04-01T13:18:36;100083.41;;;16.41;55.62
71601;BME280;59446;52.192;4.628;2023-04-01T13:21:16;100092.13;;;16.42;55.77
71601;BME280;59446;52.192;4.628;2023-04-01T13:24:00;100096.44;;;16.43;55.69
71601;BME280;59446;52.192;4.628;2023-04-01T13:26:39;100102.56;;;16.43;56.07
71601;BME280;59446;52.192;4.628;2023-04-01T13:29:16;100103.50;;;16.42;55.89
71601;BME280;59446;52.192;4.628;2023-04-01T13:34:48;100120.19;;;16.41;55.96
71601;BME280;59446;52.192;4.628;2023-04-01T13:40:24;100114.94;;;16.41;56.12
71601;BME280;59446;52.192;4.628;2023-04-01T13:43:24;100130.72;;;16.41;55.76
71601;BME280;59446;52.192;4.628;2023-04-01T13:54:49;100141.44;;;16.38;56.28
71601;BME280;59446;52.192;4.628;2023-04-01T14:03:27;100158.88;;;16.39;55.57
71601;BME280;59446;52.192;4.628;2023-04-01T14:06:04;100152.78;;;16.39;55.81
71601;BME280;59446;52.192;4.628;2023-04-01T14:11:31;100159.81;;;16.38;55.60
71601;BME280;59446;52.192;4.628;2023-04-01T14:23:16;100178.41;;;16.35;56.29
71601;BME280;59446;52.192;4.628;2023-04-01T14:29:09;100186.28;;;16.35;56.08
71601;BME280;59446;52.192;4.628;2023-04-01T14:31:44;100188.06;;;16.34;55.80
71601;BME280;59446;52.192;4.628;2023-04-01T14:43:10;100204.50;;;16.38;58.10
71601;BME280;59446;52.192;4.628;2023-04-01T14:51:18;100226.00;;;16.86;56.71
71601;BME280;59446;52.192;4.628;2023-04-01T14:56:44;100236.41;;;17.14;56.13
71601;BME280;59446;52.192;4.628;2023-04-01T14:59:30;100239.78;;;17.16;56.30
71601;BME280;59446;52.192;4.628;2023-04-01T15:02:01;100242.31;;;17.18;56.27
71601;BME280;59446;52.192;4.628;2023-04-01T15:13:14;100267.03;;;17.15;57.11
71601;BME280;59446;52.192;4.628;2023-04-01T15:21:18;100286.00;;;17.20;58.30
71601;BME280;59446;52.192;4.628;2023-04-01T15:24:19;100289.28;;;17.24;58.14
71601;BME280;59446;52.192;4.628;2023-04-01T15:35:18;100307.19;;;17.32;58.48
71601;BME280;59446;52.192;4.628;2023-04-01T15:37:55;100315.94;;;17.32;58.66
71601;BME280;59446;52.192;4.628;2023-04-01T15:43:42;100323.94;;;17.31;58.50
71601;BME280;59446;52.192;4.628;2023-04-01T15:46:14;100330.88;;;17.32;58.41
71601;BME280;59446;52.192;4.628;2023-04-01T15:49:01;100336.91;;;17.34;58.41
71601;BME280;59446;52.192;4.628;2023-04-01T15:54:21;100347.22;;;17.37;58.02
71601;BME280;59446;52.192;4.628;2023-04-01T15:57:15;100350.59;;;17.39;57.80
71601;BME280;59446;52.192;4.628;2023-04-01T16:00:26;100352.38;;;17.38;58.14
71601;BME280;59446;52.192;4.628;2023-04-01T16:11:25;100378.81;;;17.37;57.75
71601;BME280;59446;52.192;4.628;2023-04-01T16:17:10;100391.66;;;17.41;57.49
71601;BME280;59446;52.192;4.628;2023-04-01T16:19:52;100390.81;;;17.41;57.58
71601;BME280;59446;52.192;4.628;2023-04-01T16:22:28;100404.94;;;17.40;57.37
71601;BME280;59446;52.192;4.628;2023-04-01T16:27:54;100402.94;;;17.43;57.49
71601;BME280;59446;52.192;4.628;2023-04-01T16:30:42;100410.00;;;17.43;57.37
71601;BME280;59446;52.192;4.628;2023-04-01T16:33:22;100411.56;;;17.45;57.67
71601;BME280;59446;52.192;4.628;2023-04-01T16:36:21;100423.72;;;17.48;57.50
71601;BME280;59446;52.192;4.628;2023-04-01T16:39:27;100432.47;;;17.48;57.31
71601;BME280;59446;52.192;4.628;2023-04-01T16:42:11;100435.00;;;17.50;57.39
71601;BME280;59446;52.192;4.628;2023-04-01T16:45:02;100432.38;;;17.50;57.33
71601;BME280;59446;52.192;4.628;2023-04-01T16:47:48;100448.91;;;17.52;57.34
71601;BME280;59446;52.192;4.628;2023-04-01T16:50:22;100444.47;;;17.52;57.23
71601;BME280;59446;52.192;4.628;2023-04-01T16:53:14;100458.31;;;17.56;56.96
71601;BME280;59446;52.192;4.628;2023-04-01T16:58:48;100459.72;;;17.62;56.56
71601;BME280;59446;52.192;4.628;2023-04-01T17:01:43;100472.03;;;17.61;56.34
71601;BME280;59446;52.192;4.628;2023-04-01T17:04:30;100474.56;;;17.63;56.27
71601;BME280;59446;52.192;4.628;2023-04-01T17:10:17;100488.28;;;17.68;56.31
71601;BME280;59446;52.192;4.628;2023-04-01T17:19:19;100507.56;;;17.68;56.17
71601;BME280;59446;52.192;4.628;2023-04-01T17:27:59;100530.34;;;17.69;56.54
71601;BME280;59446;52.192;4.628;2023-04-01T17:30:36;100531.09;;;17.71;56.32
71601;BME280;59446;52.192;4.628;2023-04-01T17:33:43;100540.69;;;17.72;56.58
71601;BME280;59446;52.192;4.628;2023-04-01T17:45:27;100581.03;;;17.73;56.67
71601;BME280;59446;52.192;4.628;2023-04-01T17:48:06;100590.81;;;17.71;56.63
71601;BME280;59446;52.192;4.628;2023-04-01T17:51:05;100591.56;;;17.73;56.70
71601;BME280;59446;52.192;4.628;2023-04-01T18:00:01;100608.56;;;17.67;56.76
71601;BME280;59446;52.192;4.628;2023-04-01T18:02:41;100620.78;;;17.68;56.62
71601;BME280;59446;52.192;4.628;2023-04-01T18:05:30;100629.81;;;17.64;57.40
71601;BME280;59446;52.192;4.628;2023-04-01T18:08:23;100631.72;;;17.62;57.28
71601;BME280;59446;52.192;4.628;2023-04-01T18:16:46;100653.44;;;17.66;57.44
71601;BME280;59446;52.192;4.628;2023-04-01T18:22:43;100676.09;;;17.68;57.54
71601;BME280;59446;52.192;4.628;2023-04-01T18:25:30;100675.19;;;17.69;57.20
71601;BME280;59446;52.192;4.628;2023-04-01T18:28:22;100672.38;;;17.72;57.24
71601;BME280;59446;52.192;4.628;2023-04-01T18:30:53;100689.66;;;17.76;56.67
71601;BME280;59446;52.192;4.628;2023-04-01T18:33:30;100692.31;;;17.76;57.07
71601;BME280;59446;52.192;4.628;2023-04-01T18:36:14;100701.78;;;17.79;56.65
71601;BME280;59446;52.192;4.628;2023-04-01T18:38:48;100712.25;;;17.80;56.58
71601;BME280;59446;52.192;4.628;2023-04-01T18:41:35;100718.53;;;17.78;56.54
71601;BME280;59446;52.192;4.628;2023-04-01T18:44:34;100719.19;;;17.81;56.76
71601;BME280;59446;52.192;4.628;2023-04-01T18:47:30;100727.94;;;17.82;56.89
71601;BME280;59446;52.192;4.628;2023-04-01T18:52:36;100753.16;;;17.86;56.71
71601;BME280;59446;52.192;4.628;2023-04-01T18:57:51;100757.69;;;17.84;56.60
71601;BME280;59446;52.192;4.628;2023-04-01T19:00:32;100764.53;;;17.86;56.69
71601;BME280;59446;52.192;4.628;2023-04-01T19:03:11;100760.13;;;17.87;56.52
71601;BME280;59446;52.192;4.628;2023-04-01T19:05:44;100782.97;;;17.86;56.74
71601;BME280;59446;52.192;4.628;2023-04-01T19:11:49;100782.31;;;17.83;56.74
71601;BME280;59446;52.192;4.628;2023-04-01T19:14:47;100791.91;;;17.84;56.87
71601;BME280;59446;52.192;4.628;2023-04-01T19:17:31;100801.44;;;17.86;56.70
71601;BME280;59446;52.192;4.628;2023-04-01T19:25:49;100823.63;;;17.82;56.49
71601;BME280;59446;52.192;4.628;2023-04-01T19:34:22;100839.63;;;17.79;56.48
71601;BME280;59446;52.192;4.628;2023-04-01T19:37:03;100843.94;;;17.80;56.43
71601;BME280;59446;52.192;4.628;2023-04-01T19:39:51;100840.38;;;17.81;56.49
71601;BME280;59446;52.192;4.628;2023-04-01T19:48:13;100866.72;;;17.81;56.70
71601;BME280;59446;52.192;4.628;2023-04-01T19:50:50;100862.38;;;17.80;56.62
71601;BME280;59446;52.192;4.628;2023-04-01T20:04:05;100897.16;;;17.71;56.64
71601;BME280;59446;52.192;4.628;2023-04-01T20:17:18;100919.50;;;17.64;56.87
71601;BME280;59446;52.192;4.628;2023-04-01T20:27:46;100940.91;;;17.58;56.67
71601;BME280;59446;52.192;4.628;2023-04-01T20:44:12;100986.16;;;17.49;56.36
71601;BME280;59446;52.192;4.628;2023-04-01T20:51:38;101005.69;;;17.45;56.13
71601;BME280;59446;52.192;4.628;2023-04-01T21:08:19;101029.78;;;17.37;56.02
71601;BME280;59446;52.192;4.628;2023-04-01T21:13:55;101038.78;;;17.33;56.04
71601;BME280;59446;52.192;4.628;2023-04-01T21:24:45;101067.91;;;17.30;56.48
71601;BME280;59446;52.192;4.628;2023-04-01T21:29:58;101073.34;;;17.27;56.39
71601;BME280;59446;52.192;4.628;2023-04-01T21:32:38;101085.66;;;17.26;56.45
71601;BME280;59446;52.192;4.628;2023-04-01T21:35:14;101087.44;;;17.26;56.23
71601;BME280;59446;52.192;4.628;2023-04-01T21:54:55;101122.88;;;17.19;56.42
71601;BME280;59446;52.192;4.628;2023-04-01T21:57:57;101137.81;;;17.18;56.34
71601;BME280;59446;52.192;4.628;2023-04-01T22:00:42;101133.47;;;17.17;56.57
71601;BME280;59446;52.192;4.628;2023-04-01T22:08:46;101152.84;;;17.16;56.40
71601;BME280;59446;52.192;4.628;2023-04-01T22:17:17;101167.94;;;17.13;56.83
71601;BME280;59446;52.192;4.628;2023-04-01T22:19:52;101174.97;;;17.12;56.69
71601;BME280;59446;52.192;4.628;2023-04-01T22:22:50;101178.53;;;17.11;56.73
71601;BME280;59446;52.192;4.628;2023-04-01T22:25:31;101182.09;;;17.10;56.50
71601;BME280;59446;52.192;4.628;2023-04-01T22:28:07;101189.06;;;17.11;56.49
71601;BME280;59446;52.192;4.628;2023-04-01T22:31:04;101197.03;;;17.10;56.67
71601;BME280;59446;52.192;4.628;2023-04-01T22:42:06;101213.91;;;17.06;56.72
71601;BME280;59446;52.192;4.628;2023-04-01T22:48:36;101215.84;;;17.02;56.74
71601;BME280;59446;52.192;4.628;2023-04-01T22:56:20;101237.81;;;17.01;56.79
71601;BME280;59446;52.192;4.628;2023-04-01T22:59:04;101236.09;;;17.00;56.66
71601;BME280;59446;52.192;4.628;2023-04-01T23:01:35;101249.25;;;17.00;56.57